sensor_id;sensor_type;location;lat;lon;timestamp;temperature;humidity
28530;DHT22;15737;49.760;6.632;2024-01-11T00:00:37;-4.50;99.90
28530;DHT22;15737;49.760;6.632;2024-01-11T00:03:02;-4.60;99.90
28530;DHT22;15737;49.760;6.632;2024-01-11T00:05:28;-4.70;99.90
28530;DHT22;15737;49.760;6.632;2024-01-11T00:07:54;-4.90;99.90
28530;DHT22;15737;49.760;6.632;2024-01-11T00:10:20;-4.90;99.90
28530;DHT22;15737;49.760;6.632;2024-01-11T00:12:46;-4.90;99.90
28530;DHT22;15737;49.760;6.632;2024-01-11T00:15:12;-4.90;99.90
28530;DHT22;15737;49.760;6.632;2024-01-11T00:17:37;-4.90;99.90
28530;DHT22;15737;49.760;6.632;2024-01-11T00:20:03;-4.90;99.90
28530;DHT22;15737;49.760;6.632;2024-01-11T00:24:59;-4.80;99.90
28530;DHT22;15737;49.760;6.632;2024-01-11T00:27:24;-4.80;99.90
28530;DHT22;15737;49.760;6.632;2024-01-11T00:29:50;-4.80;99.90
28530;DHT22;15737;49.760;6.632;2024-01-11T00:32:15;-4.80;99.90
28530;DHT22;15737;49.760;6.632;2024-01-11T00:34:41;-4.90;99.90
28530;DHT22;15737;49.760;6.632;2024-01-11T00:37:06;-5.00;99.90
28530;DHT22;15737;49.760;6.632;2024-01-11T00:39:32;-5.10;99.90
28530;DHT22;15737;49.760;6.632;2024-01-11T00:41:57;-5.00;99.90
28530;DHT22;15737;49.760;6.632;2024-01-11T00:44:23;-5.10;99.90
28530;DHT22;15737;49.760;6.632;2024-01-11T00:46:48;-5.10;99.90
28530;DHT22;15737;49.760;6.632;2024-01-11T00:49:14;-5.10;99.90
28530;DHT22;15737;49.760;6.632;2024-01-11T00:51:40;-5.10;99.90
28530;DHT22;15737;49.760;6.632;2024-01-11T00:54:05;-5.10;99.90
28530;DHT22;15737;49.760;6.632;2024-01-11T00:56:31;-5.00;99.90
28530;DHT22;15737;49.760;6.632;2024-01-11T00:58:56;-5.00;99.90
28530;DHT22;15737;49.760;6.632;2024-01-11T01:01:22;-4.80;99.90
28530;DHT22;15737;49.760;6.632;2024-01-11T01:03:47;-4.60;99.90
28530;DHT22;15737;49.760;6.632;2024-01-11T01:06:15;-4.60;99.90
28530;DHT22;15737;49.760;6.632;2024-01-11T01:08:41;-4.70;99.90
28530;DHT22;15737;49.760;6.632;2024-01-11T01:11:06;-4.80;99.90
28530;DHT22;15737;49.760;6.632;2024-01-11T01:13:32;-4.70;99.90
28530;DHT22;15737;49.760;6.632;2024-01-11T01:15:57;-4.60;99.90
28530;DHT22;15737;49.760;6.632;2024-01-11T01:18:23;-4.50;99.90
28530;DHT22;15737;49.760;6.632;2024-01-11T01:20:48;-4.40;99.90
28530;DHT22;15737;49.760;6.632;2024-01-11T01:23:14;-4.40;99.90
28530;DHT22;15737;49.760;6.632;2024-01-11T01:25:39;-4.30;99.90
28530;DHT22;15737;49.760;6.632;2024-01-11T01:28:05;-4.30;99.90
28530;DHT22;15737;49.760;6.632;2024-01-11T01:30:31;-4.30;99.90
28530;DHT22;15737;49.760;6.632;2024-01-11T01:32:56;-4.40;99.90
28530;DHT22;15737;49.760;6.632;2024-01-11T01:35:22;-4.50;99.90
28530;DHT22;15737;49.760;6.632;2024-01-11T01:37:47;-4.70;99.90
28530;DHT22;15737;49.760;6.632;2024-01-11T01:40:13;-4.70;99.90
28530;DHT22;15737;49.760;6.632;2024-01-11T01:42:43;-4.60;99.90
28530;DHT22;15737;49.760;6.632;2024-01-11T01:45:09;-4.30;99.90
28530;DHT22;15737;49.760;6.632;2024-01-11T01:47:35;-4.30;99.90
28530;DHT22;15737;49.760;6.632;2024-01-11T01:50:01;-4.30;99.90
28530;DHT22;15737;49.760;6.632;2024-01-11T01:52:27;-4.10;99.90
28530;DHT22;15737;49.760;6.632;2024-01-11T01:54:52;-4.20;99.90
28530;DHT22;15737;49.760;6.632;2024-01-11T01:57:19;-4.30;99.90
28530;DHT22;15737;49.760;6.632;2024-01-11T01:59:45;-4.50;99.90
28530;DHT22;15737;49.760;6.632;2024-01-11T02:02:13;-4.60;99.90
28530;DHT22;15737;49.760;6.632;2024-01-11T02:04:39;-4.80;99.90
28530;DHT22;15737;49.760;6.632;2024-01-11T02:07:06;-5.00;99.90
28530;DHT22;15737;49.760;6.632;2024-01-11T02:09:32;-5.20;99.90
28530;DHT22;15737;49.760;6.632;2024-01-11T02:11:58;-5.20;99.90
28530;DHT22;15737;49.760;6.632;2024-01-11T02:14:25;-5.10;99.90
28530;DHT22;15737;49.760;6.632;2024-01-11T02:16:51;-5.00;99.90
28530;DHT22;15737;49.760;6.632;2024-01-11T02:19:18;-4.90;99.90
28530;DHT22;15737;49.760;6.632;2024-01-11T02:21:46;-4.80;99.90
28530;DHT22;15737;49.760;6.632;2024-01-11T02:24:13;-4.80;99.90
28530;DHT22;15737;49.760;6.632;2024-01-11T02:27:01;-4.50;99.90
28530;DHT22;15737;49.760;6.632;2024-01-11T02:29:27;-4.10;99.90
28530;DHT22;15737;49.760;6.632;2024-01-11T02:31:54;-3.90;99.90
28530;DHT22;15737;49.760;6.632;2024-01-11T02:34:19;-3.70;99.90
28530;DHT22;15737;49.760;6.632;2024-01-11T02:36:45;-3.60;99.90
28530;DHT22;15737;49.760;6.632;2024-01-11T02:39:11;-3.50;99.90
28530;DHT22;15737;49.760;6.632;2024-01-11T02:41:38;-3.40;99.90
28530;DHT22;15737;49.760;6.632;2024-01-11T02:44:04;-3.40;99.90
28530;DHT22;15737;49.760;6.632;2024-01-11T02:46:30;-3.60;99.90
28530;DHT22;15737;49.760;6.632;2024-01-11T02:48:55;-3.60;99.90
28530;DHT22;15737;49.760;6.632;2024-01-11T02:51:21;-3.70;99.90
28530;DHT22;15737;49.760;6.632;2024-01-11T02:53:46;-3.80;99.90
28530;DHT22;15737;49.760;6.632;2024-01-11T02:56:12;-3.80;99.90
28530;DHT22;15737;49.760;6.632;2024-01-11T02:58:37;-4.00;99.90
28530;DHT22;15737;49.760;6.632;2024-01-11T03:01:03;-3.90;99.90
28530;DHT22;15737;49.760;6.632;2024-01-11T03:03:29;-3.90;99.90
28530;DHT22;15737;49.760;6.632;2024-01-11T03:05:54;-3.80;99.90
28530;DHT22;15737;49.760;6.632;2024-01-11T03:08:20;-3.70;99.90
28530;DHT22;15737;49.760;6.632;2024-01-11T03:10:46;-3.70;99.90
28530;DHT22;15737;49.760;6.632;2024-01-11T03:13:11;-3.80;99.90
28530;DHT22;15737;49.760;6.632;2024-01-11T03:15:38;-3.80;99.90
28530;DHT22;15737;49.760;6.632;2024-01-11T03:18:04;-3.70;99.90
28530;DHT22;15737;49.760;6.632;2024-01-11T03:20:30;-3.70;99.90
28530;DHT22;15737;49.760;6.632;2024-01-11T03:22:55;-3.70;99.90
28530;DHT22;15737;49.760;6.632;2024-01-11T03:25:21;-3.60;99.90
28530;DHT22;15737;49.760;6.632;2024-01-11T03:30:12;-3.20;99.90
28530;DHT22;15737;49.760;6.632;2024-01-11T03:32:38;-3.20;99.90
28530;DHT22;15737;49.760;6.632;2024-01-11T03:35:07;-3.20;99.90
28530;DHT22;15737;49.760;6.632;2024-01-11T03:37:32;-3.30;99.90
28530;DHT22;15737;49.760;6.632;2024-01-11T03:39:58;-3.30;99.90
28530;DHT22;15737;49.760;6.632;2024-01-11T03:42:24;-3.40;99.90
28530;DHT22;15737;49.760;6.632;2024-01-11T03:44:49;-3.70;99.90
28530;DHT22;15737;49.760;6.632;2024-01-11T03:47:15;-4.10;99.90
28530;DHT22;15737;49.760;6.632;2024-01-11T03:49:40;-4.20;99.90
28530;DHT22;15737;49.760;6.632;2024-01-11T03:52:06;-4.00;99.90
28530;DHT22;15737;49.760;6.632;2024-01-11T03:54:31;-3.70;99.90
28530;DHT22;15737;49.760;6.632;2024-01-11T03:56:57;-3.70;99.90
28530;DHT22;15737;49.760;6.632;2024-01-11T03:59:23;-3.70;99.90
28530;DHT22;15737;49.760;6.632;2024-01-11T04:01:48;-3.60;99.90
28530;DHT22;15737;49.760;6.632;2024-01-11T04:04:14;-3.40;99.90
28530;DHT22;15737;49.760;6.632;2024-01-11T04:06:39;-3.30;99.90
28530;DHT22;15737;49.760;6.632;2024-01-11T04:09:05;-3.30;99.90
28530;DHT22;15737;49.760;6.632;2024-01-11T04:11:30;-3.30;99.90
28530;DHT22;15737;49.760;6.632;2024-01-11T04:13:56;-3.30;99.90
28530;DHT22;15737;49.760;6.632;2024-01-11T04:16:21;-3.30;99.90
28530;DHT22;15737;49.760;6.632;2024-01-11T04:18:47;-3.20;99.90
28530;DHT22;15737;49.760;6.632;2024-01-11T04:21:23;-3.20;99.90
28530;DHT22;15737;49.760;6.632;2024-01-11T04:23:50;-3.10;99.90
28530;DHT22;15737;49.760;6.632;2024-01-11T04:26:16;-3.10;99.90
28530;DHT22;15737;49.760;6.632;2024-01-11T04:28:43;-3.00;99.90
28530;DHT22;15737;49.760;6.632;2024-01-11T04:31:08;-3.00;99.90
28530;DHT22;15737;49.760;6.632;2024-01-11T04:33:34;-3.10;99.90
28530;DHT22;15737;49.760;6.632;2024-01-11T04:35:59;-3.20;99.90
28530;DHT22;15737;49.760;6.632;2024-01-11T04:38:25;-3.20;99.90
28530;DHT22;15737;49.760;6.632;2024-01-11T04:40:50;-3.20;99.90
28530;DHT22;15737;49.760;6.632;2024-01-11T04:43:16;-3.20;99.90
28530;DHT22;15737;49.760;6.632;2024-01-11T04:45:41;-3.20;99.90
28530;DHT22;15737;49.760;6.632;2024-01-11T04:48:07;-3.20;99.90
28530;DHT22;15737;49.760;6.632;2024-01-11T04:50:32;-3.10;99.90
28530;DHT22;15737;49.760;6.632;2024-01-11T04:52:58;-3.10;99.90
28530;DHT22;15737;49.760;6.632;2024-01-11T04:55:23;-3.00;99.90
28530;DHT22;15737;49.760;6.632;2024-01-11T04:57:49;-3.00;99.90
28530;DHT22;15737;49.760;6.632;2024-01-11T05:00:15;-3.00;99.90
28530;DHT22;15737;49.760;6.632;2024-01-11T05:02:40;-3.10;99.90
28530;DHT22;15737;49.760;6.632;2024-01-11T05:05:06;-3.20;99.90
28530;DHT22;15737;49.760;6.632;2024-01-11T05:07:31;-3.20;99.90
28530;DHT22;15737;49.760;6.632;2024-01-11T05:09:57;-3.10;99.90
28530;DHT22;15737;49.760;6.632;2024-01-11T05:12:22;-3.10;99.90
28530;DHT22;15737;49.760;6.632;2024-01-11T05:14:48;-3.30;99.90
28530;DHT22;15737;49.760;6.632;2024-01-11T05:17:13;-3.40;99.90
28530;DHT22;15737;49.760;6.632;2024-01-11T05:19:39;-3.50;99.90
28530;DHT22;15737;49.760;6.632;2024-01-11T05:22:05;-3.60;99.90
28530;DHT22;15737;49.760;6.632;2024-01-11T05:24:30;-3.60;99.90
28530;DHT22;15737;49.760;6.632;2024-01-11T05:27:03;-3.70;99.90
28530;DHT22;15737;49.760;6.632;2024-01-11T05:29:29;-3.80;99.90
28530;DHT22;15737;49.760;6.632;2024-01-11T05:31:54;-3.70;99.90
28530;DHT22;15737;49.760;6.632;2024-01-11T05:34:20;-3.70;99.90
28530;DHT22;15737;49.760;6.632;2024-01-11T05:36:46;-4.00;99.90
28530;DHT22;15737;49.760;6.632;2024-01-11T05:39:11;-4.00;99.90
28530;DHT22;15737;49.760;6.632;2024-01-11T05:41:37;-4.00;99.90
28530;DHT22;15737;49.760;6.632;2024-01-11T05:44:03;-4.00;99.90
28530;DHT22;15737;49.760;6.632;2024-01-11T05:46:29;-3.80;99.90
28530;DHT22;15737;49.760;6.632;2024-01-11T05:48:55;-3.80;99.90
28530;DHT22;15737;49.760;6.632;2024-01-11T05:51:22;-4.00;99.90
28530;DHT22;15737;49.760;6.632;2024-01-11T05:53:51;-4.00;99.90
28530;DHT22;15737;49.760;6.632;2024-01-11T05:56:18;-4.00;99.90
28530;DHT22;15737;49.760;6.632;2024-01-11T05:58:45;-3.90;99.90
28530;DHT22;15737;49.760;6.632;2024-01-11T06:01:11;-3.90;99.90
28530;DHT22;15737;49.760;6.632;2024-01-11T06:03:36;-4.00;99.90
28530;DHT22;15737;49.760;6.632;2024-01-11T06:06:03;-3.90;99.90
28530;DHT22;15737;49.760;6.632;2024-01-11T06:08:30;-4.00;99.90
28530;DHT22;15737;49.760;6.632;2024-01-11T06:10:57;-4.00;99.90
28530;DHT22;15737;49.760;6.632;2024-01-11T06:13:22;-4.30;99.90
28530;DHT22;15737;49.760;6.632;2024-01-11T06:15:48;-4.70;99.90
28530;DHT22;15737;49.760;6.632;2024-01-11T06:18:15;-5.10;99.90
28530;DHT22;15737;49.760;6.632;2024-01-11T06:20:44;-4.90;99.90
28530;DHT22;15737;49.760;6.632;2024-01-11T06:23:09;-4.40;99.90
28530;DHT22;15737;49.760;6.632;2024-01-11T06:25:35;-3.90;99.90
28530;DHT22;15737;49.760;6.632;2024-01-11T06:28:03;-3.90;99.90
28530;DHT22;15737;49.760;6.632;2024-01-11T06:30:29;-3.80;99.90
28530;DHT22;15737;49.760;6.632;2024-01-11T06:32:55;-3.60;99.90
28530;DHT22;15737;49.760;6.632;2024-01-11T06:35:20;-3.50;99.90
28530;DHT22;15737;49.760;6.632;2024-01-11T06:37:46;-3.40;99.90
28530;DHT22;15737;49.760;6.632;2024-01-11T06:40:11;-3.50;99.90
28530;DHT22;15737;49.760;6.632;2024-01-11T06:42:37;-3.70;99.90
28530;DHT22;15737;49.760;6.632;2024-01-11T06:45:03;-3.70;99.90
28530;DHT22;15737;49.760;6.632;2024-01-11T06:47:28;-3.80;99.90
28530;DHT22;15737;49.760;6.632;2024-01-11T06:49:54;-4.00;99.90
28530;DHT22;15737;49.760;6.632;2024-01-11T06:52:19;-4.20;99.90
28530;DHT22;15737;49.760;6.632;2024-01-11T06:54:45;-4.50;99.90
28530;DHT22;15737;49.760;6.632;2024-01-11T06:57:11;-4.40;99.90
28530;DHT22;15737;49.760;6.632;2024-01-11T06:59:48;-4.30;99.90
28530;DHT22;15737;49.760;6.632;2024-01-11T07:02:14;-4.10;99.90
28530;DHT22;15737;49.760;6.632;2024-01-11T07:04:43;-4.00;99.90
28530;DHT22;15737;49.760;6.632;2024-01-11T07:07:09;-4.00;99.90
28530;DHT22;15737;49.760;6.632;2024-01-11T07:09:34;-4.00;99.90
28530;DHT22;15737;49.760;6.632;2024-01-11T07:12:00;-4.10;99.90
28530;DHT22;15737;49.760;6.632;2024-01-11T07:14:27;-4.00;99.90
28530;DHT22;15737;49.760;6.632;2024-01-11T07:16:54;-3.90;99.90
28530;DHT22;15737;49.760;6.632;2024-01-11T07:19:20;-3.80;99.90
28530;DHT22;15737;49.760;6.632;2024-01-11T07:21:45;-3.80;99.90
28530;DHT22;15737;49.760;6.632;2024-01-11T07:24:14;-3.80;99.90
28530;DHT22;15737;49.760;6.632;2024-01-11T07:26:41;-3.80;99.90
28530;DHT22;15737;49.760;6.632;2024-01-11T07:29:07;-3.80;99.90
28530;DHT22;15737;49.760;6.632;2024-01-11T07:31:32;-3.80;99.90
28530;DHT22;15737;49.760;6.632;2024-01-11T07:33:58;-3.60;99.90
28530;DHT22;15737;49.760;6.632;2024-01-11T07:36:23;-3.40;99.90
28530;DHT22;15737;49.760;6.632;2024-01-11T07:38:49;-3.40;99.90
28530;DHT22;15737;49.760;6.632;2024-01-11T07:41:14;-3.30;99.90
28530;DHT22;15737;49.760;6.632;2024-01-11T07:43:40;-3.20;99.90
28530;DHT22;15737;49.760;6.632;2024-01-11T07:46:05;-3.10;99.90
28530;DHT22;15737;49.760;6.632;2024-01-11T07:48:32;-2.70;99.90
28530;DHT22;15737;49.760;6.632;2024-01-11T07:50:59;-1.80;99.90
28530;DHT22;15737;49.760;6.632;2024-01-11T07:53:39;-0.70;99.90
28530;DHT22;15737;49.760;6.632;2024-01-11T07:56:06;0.60;99.90
28530;DHT22;15737;49.760;6.632;2024-01-11T07:58:32;1.70;99.90
28530;DHT22;15737;49.760;6.632;2024-01-11T08:00:57;2.40;99.90
28530;DHT22;15737;49.760;6.632;2024-01-11T08:03:23;2.90;99.90
28530;DHT22;15737;49.760;6.632;2024-01-11T08:05:48;3.50;99.90
28530;DHT22;15737;49.760;6.632;2024-01-11T08:08:27;4.20;99.90
28530;DHT22;15737;49.760;6.632;2024-01-11T08:10:53;5.20;99.90
28530;DHT22;15737;49.760;6.632;2024-01-11T08:13:19;6.00;99.90
28530;DHT22;15737;49.760;6.632;2024-01-11T08:15:48;6.70;99.40
28530;DHT22;15737;49.760;6.632;2024-01-11T08:18:14;7.50;98.50
28530;DHT22;15737;49.760;6.632;2024-01-11T08:20:40;8.10;97.60
28530;DHT22;15737;49.760;6.632;2024-01-11T08:23:06;8.80;96.50
28530;DHT22;15737;49.760;6.632;2024-01-11T08:25:32;8.90;95.70
28530;DHT22;15737;49.760;6.632;2024-01-11T08:27:57;9.40;95.10
28530;DHT22;15737;49.760;6.632;2024-01-11T08:30:23;9.40;94.20
28530;DHT22;15737;49.760;6.632;2024-01-11T08:32:48;9.80;94.00
28530;DHT22;15737;49.760;6.632;2024-01-11T08:35:14;10.20;92.70
28530;DHT22;15737;49.760;6.632;2024-01-11T08:37:39;10.50;91.40
28530;DHT22;15737;49.760;6.632;2024-01-11T08:40:05;10.80;91.10
28530;DHT22;15737;49.760;6.632;2024-01-11T08:42:32;10.60;90.60
28530;DHT22;15737;49.760;6.632;2024-01-11T08:44:58;10.50;90.50
28530;DHT22;15737;49.760;6.632;2024-01-11T08:47:24;10.30;89.20
28530;DHT22;15737;49.760;6.632;2024-01-11T08:49:49;10.20;89.50
28530;DHT22;15737;49.760;6.632;2024-01-11T08:52:15;10.70;88.60
28530;DHT22;15737;49.760;6.632;2024-01-11T08:54:40;10.40;86.50
28530;DHT22;15737;49.760;6.632;2024-01-11T08:57:06;9.60;87.40
28530;DHT22;15737;49.760;6.632;2024-01-11T08:59:31;9.80;88.50
28530;DHT22;15737;49.760;6.632;2024-01-11T09:01:58;10.70;86.00
28530;DHT22;15737;49.760;6.632;2024-01-11T09:04:23;10.30;82.80
28530;DHT22;15737;49.760;6.632;2024-01-11T09:06:49;10.60;84.40
28530;DHT22;15737;49.760;6.632;2024-01-11T09:09:14;11.50;82.60
28530;DHT22;15737;49.760;6.632;2024-01-11T09:11:40;12.10;80.40
28530;DHT22;15737;49.760;6.632;2024-01-11T09:14:21;12.10;79.40
28530;DHT22;15737;49.760;6.632;2024-01-11T09:16:46;12.00;76.70
28530;DHT22;15737;49.760;6.632;2024-01-11T09:19:14;11.20;76.90
28530;DHT22;15737;49.760;6.632;2024-01-11T09:21:39;10.50;78.20
28530;DHT22;15737;49.760;6.632;2024-01-11T09:24:06;11.20;78.90
28530;DHT22;15737;49.760;6.632;2024-01-11T09:26:32;11.30;75.80
28530;DHT22;15737;49.760;6.632;2024-01-11T09:28:57;11.20;76.50
28530;DHT22;15737;49.760;6.632;2024-01-11T09:31:23;11.80;76.60
28530;DHT22;15737;49.760;6.632;2024-01-11T09:33:48;12.70;75.50
28530;DHT22;15737;49.760;6.632;2024-01-11T09:36:15;12.80;73.50
28530;DHT22;15737;49.760;6.632;2024-01-11T09:41:14;13.20;72.50
28530;DHT22;15737;49.760;6.632;2024-01-11T09:43:41;13.60;72.40
28530;DHT22;15737;49.760;6.632;2024-01-11T09:46:06;14.00;70.50
28530;DHT22;15737;49.760;6.632;2024-01-11T09:48:37;13.60;69.30
28530;DHT22;15737;49.760;6.632;2024-01-11T09:51:04;13.10;71.40
28530;DHT22;15737;49.760;6.632;2024-01-11T09:53:42;13.40;71.00
28530;DHT22;15737;49.760;6.632;2024-01-11T09:56:09;13.50;71.30
28530;DHT22;15737;49.760;6.632;2024-01-11T09:58:35;13.80;70.80
28530;DHT22;15737;49.760;6.632;2024-01-11T10:01:08;14.00;70.00
28530;DHT22;15737;49.760;6.632;2024-01-11T10:03:34;14.20;70.20
28530;DHT22;15737;49.760;6.632;2024-01-11T10:06:00;15.00;69.00
28530;DHT22;15737;49.760;6.632;2024-01-11T10:11:07;15.80;65.00
28530;DHT22;15737;49.760;6.632;2024-01-11T10:13:33;14.90;67.30
28530;DHT22;15737;49.760;6.632;2024-01-11T10:16:11;14.40;65.40
28530;DHT22;15737;49.760;6.632;2024-01-11T10:18:41;13.80;64.80
28530;DHT22;15737;49.760;6.632;2024-01-11T10:21:06;12.60;64.30
28530;DHT22;15737;49.760;6.632;2024-01-11T10:23:36;12.30;67.10
28530;DHT22;15737;49.760;6.632;2024-01-11T10:26:01;13.00;66.30
28530;DHT22;15737;49.760;6.632;2024-01-11T10:28:28;13.10;64.90
28530;DHT22;15737;49.760;6.632;2024-01-11T10:30:54;12.80;64.10
28530;DHT22;15737;49.760;6.632;2024-01-11T10:33:20;13.00;64.30
28530;DHT22;15737;49.760;6.632;2024-01-11T10:35:48;12.50;63.80
28530;DHT22;15737;49.760;6.632;2024-01-11T10:38:15;12.40;64.00
28530;DHT22;15737;49.760;6.632;2024-01-11T10:40:42;12.10;63.90
28530;DHT22;15737;49.760;6.632;2024-01-11T10:43:09;12.40;64.70
28530;DHT22;15737;49.760;6.632;2024-01-11T10:45:39;12.20;64.00
28530;DHT22;15737;49.760;6.632;2024-01-11T10:48:13;12.10;65.30
28530;DHT22;15737;49.760;6.632;2024-01-11T10:50:43;12.60;65.40
28530;DHT22;15737;49.760;6.632;2024-01-11T10:55:58;13.10;64.10
28530;DHT22;15737;49.760;6.632;2024-01-11T10:58:25;12.40;61.80
28530;DHT22;15737;49.760;6.632;2024-01-11T11:00:53;11.60;64.30
28530;DHT22;15737;49.760;6.632;2024-01-11T11:03:20;11.10;64.00
28530;DHT22;15737;49.760;6.632;2024-01-11T11:05:48;10.70;63.50
28530;DHT22;15737;49.760;6.632;2024-01-11T11:08:19;10.50;64.90
28530;DHT22;15737;49.760;6.632;2024-01-11T11:10:46;10.20;64.00
28530;DHT22;15737;49.760;6.632;2024-01-11T11:13:14;10.30;65.40
28530;DHT22;15737;49.760;6.632;2024-01-11T11:15:42;10.70;62.90
28530;DHT22;15737;49.760;6.632;2024-01-11T11:18:12;10.00;63.20
28530;DHT22;15737;49.760;6.632;2024-01-11T11:20:39;9.60;65.20
28530;DHT22;15737;49.760;6.632;2024-01-11T11:23:08;9.50;65.20
28530;DHT22;15737;49.760;6.632;2024-01-11T11:25:49;9.40;66.00
28530;DHT22;15737;49.760;6.632;2024-01-11T11:28:18;10.10;63.70
28530;DHT22;15737;49.760;6.632;2024-01-11T11:30:47;9.70;64.40
28530;DHT22;15737;49.760;6.632;2024-01-11T11:35:43;8.70;64.20
28530;DHT22;15737;49.760;6.632;2024-01-11T11:40:52;8.30;66.90
28530;DHT22;15737;49.760;6.632;2024-01-11T11:43:22;8.90;66.60
28530;DHT22;15737;49.760;6.632;2024-01-11T11:45:49;9.30;65.90
28530;DHT22;15737;49.760;6.632;2024-01-11T11:51:18;9.60;65.80
28530;DHT22;15737;49.760;6.632;2024-01-11T11:53:46;10.20;64.00
28530;DHT22;15737;49.760;6.632;2024-01-11T11:58:47;10.40;63.60
28530;DHT22;15737;49.760;6.632;2024-01-11T12:01:14;10.70;63.80
28530;DHT22;15737;49.760;6.632;2024-01-11T12:03:44;11.10;64.30
28530;DHT22;15737;49.760;6.632;2024-01-11T12:06:15;11.20;63.30
28530;DHT22;15737;49.760;6.632;2024-01-11T12:08:42;11.10;63.80
28530;DHT22;15737;49.760;6.632;2024-01-11T12:13:43;10.70;63.40
28530;DHT22;15737;49.760;6.632;2024-01-11T12:16:10;10.70;63.80
28530;DHT22;15737;49.760;6.632;2024-01-11T12:18:35;10.80;64.30
28530;DHT22;15737;49.760;6.632;2024-01-11T12:21:01;11.00;64.10
28530;DHT22;15737;49.760;6.632;2024-01-11T12:23:27;11.10;63.70
28530;DHT22;15737;49.760;6.632;2024-01-11T12:31:09;10.80;63.70
28530;DHT22;15737;49.760;6.632;2024-01-11T12:33:35;10.60;63.50
28530;DHT22;15737;49.760;6.632;2024-01-11T12:36:04;10.60;64.10
28530;DHT22;15737;49.760;6.632;2024-01-11T12:38:30;11.20;64.80
28530;DHT22;15737;49.760;6.632;2024-01-11T12:43:35;12.50;63.10
28530;DHT22;15737;49.760;6.632;2024-01-11T12:46:01;12.90;62.70
28530;DHT22;15737;49.760;6.632;2024-01-11T12:48:27;12.90;62.20
28530;DHT22;15737;49.760;6.632;2024-01-11T12:50:53;12.80;62.90
28530;DHT22;15737;49.760;6.632;2024-01-11T12:53:19;12.90;61.90
28530;DHT22;15737;49.760;6.632;2024-01-11T12:55:49;12.30;62.40
28530;DHT22;15737;49.760;6.632;2024-01-11T12:58:19;12.10;63.10
28530;DHT22;15737;49.760;6.632;2024-01-11T13:00:46;12.30;63.50
28530;DHT22;15737;49.760;6.632;2024-01-11T13:03:12;12.00;62.30
28530;DHT22;15737;49.760;6.632;2024-01-11T13:05:37;11.60;63.10
28530;DHT22;15737;49.760;6.632;2024-01-11T13:10:34;12.20;63.50
28530;DHT22;15737;49.760;6.632;2024-01-11T13:13:01;12.60;63.40
28530;DHT22;15737;49.760;6.632;2024-01-11T13:15:27;13.10;62.90
28530;DHT22;15737;49.760;6.632;2024-01-11T13:17:55;13.50;62.90
28530;DHT22;15737;49.760;6.632;2024-01-11T13:20:21;14.00;61.70
28530;DHT22;15737;49.760;6.632;2024-01-11T13:27:55;12.70;62.20
28530;DHT22;15737;49.760;6.632;2024-01-11T13:30:21;12.60;62.70
28530;DHT22;15737;49.760;6.632;2024-01-11T13:32:46;12.60;62.40
28530;DHT22;15737;49.760;6.632;2024-01-11T13:35:12;12.40;62.50
28530;DHT22;15737;49.760;6.632;2024-01-11T13:37:37;12.50;62.80
28530;DHT22;15737;49.760;6.632;2024-01-11T13:40:03;12.40;61.70
28530;DHT22;15737;49.760;6.632;2024-01-11T13:42:28;12.00;61.00
28530;DHT22;15737;49.760;6.632;2024-01-11T13:44:54;11.20;61.20
28530;DHT22;15737;49.760;6.632;2024-01-11T13:47:20;10.80;62.50
28530;DHT22;15737;49.760;6.632;2024-01-11T13:49:45;10.50;62.50
28530;DHT22;15737;49.760;6.632;2024-01-11T13:52:11;10.40;62.70
28530;DHT22;15737;49.760;6.632;2024-01-11T13:54:36;10.40;62.50
28530;DHT22;15737;49.760;6.632;2024-01-11T13:57:03;10.20;62.30
28530;DHT22;15737;49.760;6.632;2024-01-11T13:59:28;10.50;62.70
28530;DHT22;15737;49.760;6.632;2024-01-11T14:01:54;10.70;61.80
28530;DHT22;15737;49.760;6.632;2024-01-11T14:04:19;10.70;61.80
28530;DHT22;15737;49.760;6.632;2024-01-11T14:06:48;10.60;62.20
28530;DHT22;15737;49.760;6.632;2024-01-11T14:09:15;10.70;62.00
28530;DHT22;15737;49.760;6.632;2024-01-11T14:11:41;10.40;60.40
28530;DHT22;15737;49.760;6.632;2024-01-11T14:14:06;10.00;61.90
28530;DHT22;15737;49.760;6.632;2024-01-11T14:16:32;10.40;62.50
28530;DHT22;15737;49.760;6.632;2024-01-11T14:18:57;10.30;61.00
28530;DHT22;15737;49.760;6.632;2024-01-11T14:21:24;10.10;61.20
28530;DHT22;15737;49.760;6.632;2024-01-11T14:23:49;10.10;61.80
28530;DHT22;15737;49.760;6.632;2024-01-11T14:26:16;10.50;61.70
28530;DHT22;15737;49.760;6.632;2024-01-11T14:28:45;10.80;60.40
28530;DHT22;15737;49.760;6.632;2024-01-11T14:31:11;10.80;60.10
28530;DHT22;15737;49.760;6.632;2024-01-11T14:33:37;10.60;60.10
28530;DHT22;15737;49.760;6.632;2024-01-11T14:36:02;10.10;60.20
28530;DHT22;15737;49.760;6.632;2024-01-11T14:38:28;9.60;61.90
28530;DHT22;15737;49.760;6.632;2024-01-11T14:40:53;8.90;61.80
28530;DHT22;15737;49.760;6.632;2024-01-11T14:45:49;8.80;63.60
28530;DHT22;15737;49.760;6.632;2024-01-11T14:48:16;8.80;62.90
28530;DHT22;15737;49.760;6.632;2024-01-11T14:50:42;8.90;63.20
28530;DHT22;15737;49.760;6.632;2024-01-11T14:53:08;8.80;62.90
28530;DHT22;15737;49.760;6.632;2024-01-11T14:55:36;8.60;62.90
28530;DHT22;15737;49.760;6.632;2024-01-11T14:58:05;8.40;63.70
28530;DHT22;15737;49.760;6.632;2024-01-11T15:00:31;8.50;63.90
28530;DHT22;15737;49.760;6.632;2024-01-11T15:02:56;8.40;64.00
28530;DHT22;15737;49.760;6.632;2024-01-11T15:05:22;8.00;63.30
28530;DHT22;15737;49.760;6.632;2024-01-11T15:07:47;7.30;63.90
28530;DHT22;15737;49.760;6.632;2024-01-11T15:10:13;6.60;65.60
28530;DHT22;15737;49.760;6.632;2024-01-11T15:12:38;6.30;66.00
28530;DHT22;15737;49.760;6.632;2024-01-11T15:15:05;5.70;65.80
28530;DHT22;15737;49.760;6.632;2024-01-11T15:17:31;5.20;67.10
28530;DHT22;15737;49.760;6.632;2024-01-11T15:19:57;4.90;67.80
28530;DHT22;15737;49.760;6.632;2024-01-11T15:22:23;4.70;67.90
28530;DHT22;15737;49.760;6.632;2024-01-11T15:24:49;4.50;68.70
28530;DHT22;15737;49.760;6.632;2024-01-11T15:27:19;4.40;68.80
28530;DHT22;15737;49.760;6.632;2024-01-11T15:29:46;4.20;68.80
28530;DHT22;15737;49.760;6.632;2024-01-11T15:32:12;4.10;69.00
28530;DHT22;15737;49.760;6.632;2024-01-11T15:34:38;4.00;69.20
28530;DHT22;15737;49.760;6.632;2024-01-11T15:37:04;3.80;69.20
28530;DHT22;15737;49.760;6.632;2024-01-11T15:39:29;3.80;69.40
28530;DHT22;15737;49.760;6.632;2024-01-11T15:41:55;3.50;69.20
28530;DHT22;15737;49.760;6.632;2024-01-11T15:44:21;3.30;70.20
28530;DHT22;15737;49.760;6.632;2024-01-11T15:46:47;3.20;71.00
28530;DHT22;15737;49.760;6.632;2024-01-11T15:49:13;3.10;71.80
28530;DHT22;15737;49.760;6.632;2024-01-11T15:51:38;3.00;72.20
28530;DHT22;15737;49.760;6.632;2024-01-11T15:54:04;3.00;72.70
28530;DHT22;15737;49.760;6.632;2024-01-11T15:56:29;2.90;73.20
28530;DHT22;15737;49.760;6.632;2024-01-11T15:58:55;2.80;73.40
28530;DHT22;15737;49.760;6.632;2024-01-11T16:03:55;2.60;73.30
28530;DHT22;15737;49.760;6.632;2024-01-11T16:06:21;2.30;73.60
28530;DHT22;15737;49.760;6.632;2024-01-11T16:08:46;2.00;74.10
28530;DHT22;15737;49.760;6.632;2024-01-11T16:11:15;1.50;75.00
28530;DHT22;15737;49.760;6.632;2024-01-11T16:13:40;1.20;76.20